This is the latest recevied weather packets stored in our database for station/object SQ5OUZ-8. If no packets are shown the sender has not sent any weather packets the latest 10 day(s).
| Time | Temp. | Humidity | Pressure | Rain* | Wind** | Luminosity | Snow |
|---|---|---|---|---|---|---|---|
| 1777970498 | 31.11° C | 18% | 1010 hPa | - | - | - | - |
| 1777969384 | 30.56° C | 18% | 1010 hPa | - | - | - | - |
| 1777968228 | 28.89° C | 19% | 1010 hPa | - | - | - | - |
| 1777967034 | 28.33° C | 19% | 1010 hPa | - | - | - | - |
| 1777965959 | 28.33° C | 20% | 1011 hPa | - | - | - | - |
| 1777964851 | 27.78° C | 23% | 1011 hPa | - | - | - | - |
| 1777963674 | 26.11° C | 25% | 1011 hPa | - | - | - | - |
| 1777962551 | 25.56° C | 26% | 1011 hPa | - | - | - | - |
| 1777961401 | 24.44° C | 28% | 1011 hPa | - | - | - | - |
| 1777960365 | 18.89° C | 38% | 1011 hPa | - | - | - | - |
| 1777959313 | 17.78° C | 41% | 1012 hPa | - | - | - | - |
| 1777958247 | 16.67° C | 46% | 1012 hPa | - | - | - | - |
| 1777957064 | 16.11° C | 50% | 1012 hPa | - | - | - | - |
| 1777956018 | 15.56° C | 51% | 1012 hPa | - | - | - | - |
| 1777955053 | 15° C | 53% | 1012 hPa | - | - | - | - |
| 1777953900 | 14.44° C | 54% | 1012 hPa | - | - | - | - |
| 1777952833 | 14.44° C | 57% | 1012 hPa | - | - | - | - |
| 1777951694 | 14.44° C | 58% | 1012 hPa | - | - | - | - |
| 1777950682 | 14.44° C | 57% | 1012 hPa | - | - | - | - |
| 1777949615 | 15° C | 52% | 1012 hPa | - | - | - | - |
| 1777948487 | 14.44° C | 57% | 1012 hPa | - | - | - | - |
| 1777947424 | 14.44° C | 56% | 1012 hPa | - | - | - | - |
| 1777946396 | 15° C | 56% | 1012 hPa | - | - | - | - |
| 1777945335 | 15.56° C | 54% | 1012 hPa | - | - | - | - |
| 1777944364 | 15.56° C | 52% | 1012 hPa | - | - | - | - |
* Rain since midnight (hover to see other rain measurements)
** Current wind speed in m/s (hover to see current wind gust speed)